Time;durP1;ratioP1;P1;durP2;ratioP2;P2;SDS_P1;SDS_P2;PMS_P1;PMS_P2;Temp;Humidity;BMP_temperature;BMP_pressure;BME280_temperature;BME280_humidity;BME280_pressure;Samples;Min_cycle;Max_cycle;Signal;HPM_P1;HPM_P2
2021/06/04 00:00:29;;;;;;;5.58;2.80;;;;;;;8.92;83.49;93923.79;1781403;79;21574;-85
2021/06/04 00:02:58;;;;;;;7.85;2.92;;;;;;;8.84;83.61;93924.88;1838579;77;20943;-84
2021/06/04 00:05:29;;;;;;;3.72;3.05;;;;;;;8.76;83.96;93925.92;1827104;77;21046;-83
2021/06/04 00:07:56;;;;;;;3.17;2.77;;;;;;;8.77;84.18;93927.50;1807723;79;21060;-83
2021/06/04 00:10:27;;;;;;;3.45;2.75;;;;;;;8.76;84.25;93924.56;1803104;79;21634;-83
2021/06/04 00:12:54;;;;;;;4.15;2.92;;;;;;;8.74;84.41;93924.17;1780597;80;21155;-83
2021/06/04 00:15:25;;;;;;;5.35;2.80;;;;;;;8.71;84.54;93927.04;1770553;79;21054;-84
2021/06/04 00:17:53;;;;;;;8.20;3.02;;;;;;;8.70;84.68;93920.64;1754116;80;20999;-83
2021/06/04 00:20:25;;;;;;;3.92;3.20;;;;;;;8.70;85.02;93920.64;1748280;80;21073;-84
2021/06/04 00:22:53;;;;;;;4.17;3.02;;;;;;;8.71;85.12;93922.97;1763699;78;21967;-84
2021/06/04 00:25:21;;;;;;;6.05;2.92;;;;;;;8.75;85.06;93916.23;1742431;78;21005;-85
2021/06/04 00:27:49;;;;;;;21.40;4.08;;;;;;;8.76;84.76;93917.78;1826338;78;21037;-82
2021/06/04 00:30:17;;;;;;;5.67;2.90;;;;;;;8.76;84.81;93913.72;1798655;78;21594;-82
2021/06/04 00:32:44;;;;;;;7.80;3.10;;;;;;;8.82;84.71;93912.24;1786840;80;21579;-83
2021/06/04 00:35:11;;;;;;;3.52;3.22;;;;;;;8.86;84.56;93913.06;1781748;79;22327;-84
2021/06/04 00:37:38;;;;;;;6.30;3.30;;;;;;;8.93;84.29;93920.50;1782655;79;21145;-84
2021/06/04 00:40:13;;;;;;;7.55;3.05;;;;;;;8.92;84.21;93919.72;1801455;79;21011;-83
2021/06/04 00:42:41;;;;;;;4.03;3.12;;;;;;;8.89;84.37;93916.39;1769354;79;21395;-84
2021/06/04 00:45:12;;;;;;;2.58;2.33;;;;;;;8.91;84.35;93913.30;1776989;80;21013;-84
2021/06/04 00:47:40;;;;;;;4.65;2.98;;;;;;;8.93;84.21;93915.84;1752155;80;21089;-85
2021/06/04 00:50:11;;;;;;;5.28;3.10;;;;;;;8.93;84.13;93921.85;1754693;79;21535;-86
2021/06/04 00:52:40;;;;;;;4.35;2.60;;;;;;;8.90;84.23;93913.88;1813156;78;21610;-85
2021/06/04 00:55:16;;;;;;;7.50;3.17;;;;;;;8.91;84.13;93918.72;1770114;81;21091;-85
2021/06/04 00:57:44;;;;;;;3.33;2.90;;;;;;;8.84;84.01;93914.02;1770571;81;21066;-85
2021/06/04 01:00:18;;;;;;;5.42;3.22;;;;;;;8.80;84.31;93917.83;1770140;81;21174;-84
2021/06/04 01:02:45;;;;;;;3.67;3.15;;;;;;;8.81;84.47;93917.47;1757526;81;20951;-85
2021/06/04 01:05:13;;;;;;;5.10;2.87;;;;;;;8.85;84.41;93913.45;1769258;80;21631;-84
2021/06/04 01:08:15;;;;;;;5.45;3.20;;;;;;;8.89;84.27;93912.91;1774523;80;20995;-86
2021/06/04 01:11:32;;;;;;;6.80;3.37;;;;;;;8.92;84.28;93916.23;1775221;80;21098;-83
2021/06/04 01:14:16;;;;;;;7.42;3.27;;;;;;;8.95;84.14;93912.75;1774600;80;21662;-84
2021/06/04 01:17:12;;;;;;;4.35;2.80;;;;;;;8.86;84.16;93908.99;1774457;80;21582;-86
2021/06/04 01:20:06;;;;;;;5.55;2.85;;;;;;;8.79;84.37;93906.78;1774636;80;21528;-84
2021/06/04 01:23:06;;;;;;;4.65;3.08;;;;;;;8.70;84.73;93909.80;1774874;80;20968;-85
2021/06/04 01:25:52;;;;;;;6.20;3.62;;;;;;;8.63;85.07;93902.94;1774666;80;21583;-84
2021/06/04 01:28:32;;;;;;;12.53;3.35;;;;;;;8.67;85.14;93909.18;1774872;80;21159;-87
2021/06/04 01:31:15;;;;;;;5.33;3.40;;;;;;;8.64;85.38;93903.14;1781715;80;21378;-84
2021/06/04 01:33:51;;;;;;;4.33;2.75;;;;;;;8.63;85.57;93909.72;1800320;79;21561;-84
2021/06/04 01:36:25;;;;;;;8.38;3.10;;;;;;;8.64;85.40;93906.62;1782741;78;21486;-83
2021/06/04 01:38:54;;;;;;;4.80;2.77;;;;;;;8.65;85.49;93909.56;1793896;77;21033;-87
2021/06/04 01:41:29;;;;;;;4.47;3.02;;;;;;;8.69;85.21;93913.67;1736797;79;21029;-84
2021/06/04 01:44:09;;;;;;;5.70;2.70;;;;;;;8.68;85.30;93916.93;1746126;80;20996;-85
2021/06/04 01:46:38;;;;;;;3.25;2.95;;;;;;;8.67;85.38;93913.24;1782505;80;21580;-86
2021/06/04 01:49:10;;;;;;;9.73;2.90;;;;;;;8.69;85.39;93915.02;1779970;80;21782;-85
2021/06/04 01:51:55;;;;;;;4.05;2.67;;;;;;;8.73;85.36;93911.20;1812993;78;21658;-85
2021/06/04 01:54:33;;;;;;;;;;;;;;;8.79;85.17;93917.05;1791942;78;21552;-85
2021/06/04 01:57:09;;;;;;;5.10;2.95;;;;;;;8.77;85.35;93916.66;1757048;79;20462;-85
2021/06/04 01:59:41;;;;;;;4.17;2.90;;;;;;;8.76;85.23;93917.78;1775150;80;21006;-87
2021/06/04 02:02:14;;;;;;;5.12;3.02;;;;;;;8.73;85.11;93914.48;1764064;81;21015;-85
2021/06/04 02:04:43;;;;;;;3.40;3.10;;;;;;;8.68;85.31;93914.80;1739642;82;21010;-85
2021/06/04 02:07:13;;;;;;;4.70;3.65;;;;;;;8.69;85.58;93915.80;1742236;82;21139;-83
2021/06/04 02:09:41;;;;;;;4.20;3.22;;;;;;;8.71;85.63;93912.70;1795904;79;21505;-85
2021/06/04 02:12:10;;;;;;;10.10;4.45;;;;;;;8.69;85.82;93915.80;1786838;79;21619;-85
2021/06/04 02:14:43;;;;;;;7.17;2.60;;;;;;;8.74;85.76;93917.39;1798928;77;21017;-83
2021/06/04 02:17:27;;;;;;;3.47;3.17;;;;;;;8.77;85.59;93913.17;1804140;77;20957;-86
2021/06/04 02:20:16;;;;;;;5.42;3.12;;;;;;;8.72;85.77;93912.91;1768210;79;21189;-85
2021/06/04 02:25:47;;;;;;;4.20;3.30;;;;;;;8.62;86.00;93921.72;1767745;80;21053;-85
2021/06/04 02:28:35;;;;;;;8.05;2.90;;;;;;;8.58;86.14;93920.90;1772932;80;21129;-82
2021/06/04 02:31:41;;;;;;;6.55;2.98;;;;;;;8.59;86.32;93923.23;1818609;77;20931;-83
2021/06/04 02:34:16;;;;;;;9.95;2.95;;;;;;;8.65;86.28;93919.59;1811532;77;26887;-86
2021/06/04 02:36:51;;;;;;;3.65;2.85;;;;;;;8.69;86.09;93919.87;1723823;82;20981;-85
2021/06/04 02:39:44;;;;;;;3.67;3.20;;;;;;;8.71;86.13;93918.91;1759861;80;21052;-85
2021/06/04 02:42:26;;;;;;;6.80;4.50;;;;;;;8.71;85.92;93921.62;1797317;78;21105;-84
2021/06/04 02:45:02;;;;;;;8.53;5.37;;;;;;;8.70;86.12;93922.00;1794023;79;21018;-85
2021/06/04 02:47:37;;;;;;;9.33;5.12;;;;;;;8.67;86.26;93916.73;1774425;80;21100;-85
2021/06/04 02:50:13;;;;;;;7.45;4.87;;;;;;;8.67;86.49;93923.51;1781356;79;21077;-85
2021/06/04 02:52:43;;;;;;;8.60;4.55;;;;;;;8.69;86.61;93923.16;1812396;79;21634;-86
2021/06/04 02:55:21;;;;;;;3.62;2.98;;;;;;;8.73;86.60;93930.17;1811848;79;21029;-84
2021/06/04 02:57:49;;;;;;;4.45;3.20;;;;;;;8.75;86.51;93921.08;1811618;79;21024;-86
2021/06/04 03:00:23;;;;;;;6.33;3.27;;;;;;;8.78;86.35;93922.27;1796211;79;21798;-84
2021/06/04 03:02:51;;;;;;;8.23;3.22;;;;;;;8.83;86.23;93923.87;1797443;79;20981;-84
2021/06/04 03:05:23;;;;;;;5.05;3.95;;;;;;;8.81;86.05;93928.31;1800908;79;21036;-84
2021/06/04 03:07:51;;;;;;;9.60;4.53;;;;;;;8.77;86.16;93921.30;1770024;79;21053;-84
2021/06/04 03:10:39;;;;;;;8.00;4.75;;;;;;;8.73;86.26;93918.55;1764612;80;21054;-84
2021/06/04 03:13:09;;;;;;;8.93;4.28;;;;;;;8.70;86.48;93924.71;1776031;80;22200;-85
2021/06/04 03:15:43;;;;;;;8.60;3.98;;;;;;;8.68;86.77;93929.13;1800315;79;21094;-85
2021/06/04 03:18:13;;;;;;;4.45;3.42;;;;;;;8.74;86.79;93926.30;1794145;79;21039;-83
2021/06/04 03:20:44;;;;;;;6.12;2.90;;;;;;;8.74;86.70;93928.23;1768150;79;21101;-85
2021/06/04 03:23:15;;;;;;;3.00;2.80;;;;;;;8.72;86.70;93929.95;1798464;79;21035;-83
2021/06/04 03:25:46;;;;;;;4.33;3.20;;;;;;;8.73;86.82;93921.27;1746591;81;21085;-85
2021/06/04 03:28:16;;;;;;;4.67;3.37;;;;;;;8.74;86.64;93922.23;1770358;81;21038;-83
2021/06/04 03:30:44;;;;;;;4.92;3.50;;;;;;;8.77;86.48;93922.66;1770530;80;20991;-85
2021/06/04 03:33:19;;;;;;;4.87;3.27;;;;;;;8.75;86.43;93927.08;1760517;81;21046;-84
2021/06/04 03:35:48;;;;;;;5.17;3.70;;;;;;;8.71;86.65;93924.33;1776946;79;21017;-85
2021/06/04 03:38:16;;;;;;;5.05;3.75;;;;;;;8.70;86.86;93924.13;1804607;79;21108;-84
2021/06/04 03:40:43;;;;;;;7.17;3.75;;;;;;;8.69;86.84;93926.64;1835710;78;21041;-84
2021/06/04 03:43:14;;;;;;;6.58;3.40;;;;;;;8.67;87.11;93922.16;1788138;79;21066;-84
2021/06/04 03:45:42;;;;;;;4.62;3.02;;;;;;;8.71;87.36;93927.62;1802291;79;21564;-83
2021/06/04 03:48:12;;;;;;;4.30;3.12;;;;;;;8.72;87.26;93921.03;1808765;77;20959;-87
2021/06/04 03:50:40;;;;;;;6.72;4.37;;;;;;;8.71;87.29;93927.04;1771566;81;21678;-83
2021/06/04 03:53:08;;;;;;;13.30;5.47;;;;;;;8.70;87.24;93928.78;1771547;81;20917;-84
2021/06/04 03:55:36;;;;;;;24.20;16.20;;;;;;;8.68;87.37;93931.06;1840626;77;21026;-85
2021/06/04 03:58:03;;;;;;;17.30;10.70;;;;;;;8.66;87.42;93927.37;1797409;77;21730;-85
2021/06/04 04:00:43;;;;;;;15.58;9.28;;;;;;;8.65;87.60;93929.89;1780236;80;21725;-85
2021/06/04 04:03:13;;;;;;;8.48;6.03;;;;;;;8.69;87.66;93928.00;1776292;79;21122;-86
2021/06/04 04:05:40;;;;;;;5.53;4.50;;;;;;;8.77;87.77;93932.15;1785556;80;21642;-84
2021/06/04 04:08:07;;;;;;;6.37;3.55;;;;;;;8.82;87.88;93931.80;1782909;80;21093;-85
2021/06/04 04:10:33;;;;;;;5.22;3.65;;;;;;;8.86;87.82;93937.47;1775717;79;21789;-84
2021/06/04 04:13:03;;;;;;;7.55;4.25;;;;;;;8.92;87.90;93932.50;1765870;80;21029;-84
2021/06/04 04:15:30;;;;;;;6.22;3.47;;;;;;;8.99;87.94;93933.94;1807954;78;21935;-83
2021/06/04 04:17:59;;;;;;;6.08;3.52;;;;;;;9.03;87.74;93930.68;1825342;78;21785;-83
2021/06/04 04:20:37;;;;;;;5.42;2.70;;;;;;;9.05;87.55;93935.14;1770355;79;21718;-83
2021/06/04 04:23:04;;;;;;;6.80;3.08;;;;;;;9.08;87.47;93939.83;1822218;78;21054;-83
2021/06/04 04:25:34;;;;;;;6.95;3.50;;;;;;;9.11;87.01;93935.02;1770798;78;21050;-85
2021/06/04 04:28:01;;;;;;;7.25;3.12;;;;;;;9.12;86.81;93942.58;1763852;80;21153;-84
2021/06/04 04:30:28;;;;;;;5.40;3.60;;;;;;;9.09;87.06;93940.03;1809642;77;21085;-86
2021/06/04 04:32:56;;;;;;;4.97;3.60;;;;;;;9.13;87.42;93935.41;1837290;77;21130;-84
2021/06/04 04:35:27;;;;;;;8.03;3.87;;;;;;;9.16;86.88;93937.39;1788661;80;21018;-83
2021/06/04 04:37:53;;;;;;;6.17;4.80;;;;;;;9.15;87.07;93932.34;1779504;80;21428;-83
2021/06/04 04:40:24;;;;;;;11.22;6.17;;;;;;;9.13;87.05;93942.78;1774583;79;21535;-84
2021/06/04 04:42:51;;;;;;;10.95;6.00;;;;;;;9.14;87.12;93934.83;1774330;79;21160;-84
2021/06/04 04:45:21;;;;;;;9.38;5.83;;;;;;;9.18;87.14;93937.03;1771827;80;21022;-84
2021/06/04 04:47:47;;;;;;;7.28;5.20;;;;;;;9.24;87.16;93930.87;1754150;79;21388;-84
2021/06/04 04:50:16;;;;;;;11.75;5.42;;;;;;;9.28;87.14;93936.33;1799471;79;21070;-85
2021/06/04 04:52:43;;;;;;;6.35;5.35;;;;;;;9.30;87.19;93938.11;1784627;79;21713;-83
2021/06/04 04:55:11;;;;;;;8.73;6.12;;;;;;;9.35;87.17;93943.77;1755210;80;21554;-88
2021/06/04 04:57:37;;;;;;;8.08;5.05;;;;;;;9.39;87.27;93934.49;1759852;80;21031;-84
2021/06/04 05:00:07;;;;;;;7.35;4.97;;;;;;;9.44;87.40;93934.16;1780576;80;21216;-86
2021/06/04 05:02:34;;;;;;;7.22;4.83;;;;;;;9.47;87.11;93936.69;1744624;82;21027;-85
2021/06/04 05:05:01;;;;;;;7.08;5.12;;;;;;;9.52;87.00;93936.36;1784516;80;21801;-84
2021/06/04 05:07:28;;;;;;;8.00;6.22;;;;;;;9.58;86.74;93939.49;1802070;79;21053;-86
2021/06/04 05:09:57;;;;;;;11.08;6.10;;;;;;;9.61;86.11;93940.11;1778460;78;21066;-87
2021/06/04 05:12:25;;;;;;;13.75;7.15;;;;;;;9.61;85.85;93935.45;1816314;77;21014;-86
2021/06/04 05:14:53;;;;;;;13.20;5.95;;;;;;;9.64;86.01;93929.27;1845091;77;21600;-85
2021/06/04 05:17:20;;;;;;;10.45;6.47;;;;;;;9.68;85.60;93929.30;1772377;81;21191;-85
2021/06/04 05:19:47;;;;;;;12.13;6.92;;;;;;;9.72;85.55;93935.54;1772529;81;20966;-85
2021/06/04 05:22:15;;;;;;;13.83;6.55;;;;;;;9.75;85.55;93927.23;1776052;80;21003;-87
2021/06/04 05:24:44;;;;;;;12.80;6.15;;;;;;;9.80;85.51;93934.43;1777472;80;21564;-87
2021/06/04 05:27:13;;;;;;;13.13;7.20;;;;;;;9.85;85.32;93938.14;1801079;79;21184;-88
2021/06/04 05:29:40;;;;;;;8.78;5.58;;;;;;;9.89;84.74;93936.26;1750520;82;21169;-86
2021/06/04 05:32:09;;;;;;;8.40;5.60;;;;;;;9.94;84.57;93941.91;1834174;78;21001;-83
2021/06/04 05:34:36;;;;;;;6.60;4.92;;;;;;;9.96;84.12;93939.58;1765219;79;21010;-86
2021/06/04 05:37:03;;;;;;;9.30;5.87;;;;;;;9.97;84.00;93941.94;1774092;80;21037;-85
2021/06/04 05:39:30;;;;;;;8.63;6.08;;;;;;;10.01;84.04;93941.19;1771952;80;21096;-87
2021/06/04 05:42:02;;;;;;;6.95;5.80;;;;;;;10.04;84.06;93940.41;1790762;80;21717;-86
2021/06/04 05:44:29;;;;;;;25.60;6.53;;;;;;;10.09;84.32;93946.86;1772001;80;21026;-86
2021/06/04 05:47:00;;;;;;;8.10;5.35;;;;;;;10.14;84.46;93947.84;1772008;80;21025;-86
2021/06/04 05:49:29;;;;;;;8.83;5.80;;;;;;;10.20;84.23;93944.98;1779489;77;21741;-85
2021/06/04 05:52:07;;;;;;;7.25;4.90;;;;;;;10.27;83.63;93950.50;1783789;80;21433;-84
2021/06/04 05:54:31;;;;;;;8.00;4.80;;;;;;;10.31;83.14;93952.65;1769759;78;21033;-85
2021/06/04 05:56:57;;;;;;;7.95;4.80;;;;;;;10.35;83.24;93953.45;1840300;78;21799;-85
2021/06/04 05:59:24;;;;;;;6.97;4.75;;;;;;;10.41;82.87;93955.98;1771863;77;21159;-85
2021/06/04 06:01:52;;;;;;;37.45;8.35;;;;;;;10.45;82.64;93959.53;1828529;77;21172;-86
2021/06/04 06:04:21;;;;;;;7.33;5.90;;;;;;;10.48;82.41;93957.97;1804296;77;21847;-86
2021/06/04 06:06:51;;;;;;;15.05;6.67;;;;;;;10.51;82.51;93955.08;1763022;80;21195;-83
2021/06/04 06:09:18;;;;;;;12.70;6.35;;;;;;;10.54;82.26;93952.38;1768158;77;21363;-85
2021/06/04 06:11:44;;;;;;;10.43;6.33;;;;;;;10.59;82.15;93956.66;1843078;77;21083;-85
2021/06/04 06:14:11;;;;;;;12.18;8.03;;;;;;;10.65;82.29;93951.07;1772418;77;21113;-85
2021/06/04 06:16:38;;;;;;;10.32;6.22;;;;;;;10.68;81.79;93952.45;1780012;77;21067;-85
2021/06/04 06:19:08;;;;;;;11.83;5.65;;;;;;;10.73;81.12;93955.38;1782316;80;21138;-85
2021/06/04 06:21:35;;;;;;;12.90;7.17;;;;;;;10.79;80.78;93957.13;1773557;78;20992;-84
2021/06/04 06:24:03;;;;;;;17.77;6.40;;;;;;;10.84;80.48;93956.19;1784051;79;21074;-84
2021/06/04 06:26:30;;;;;;;12.68;6.22;;;;;;;10.93;80.82;93957.95;1786255;79;21259;-85
2021/06/04 06:28:58;;;;;;;8.63;5.97;;;;;;;11.04;81.10;93962.66;1831106;77;21025;-85
2021/06/04 06:31:32;;;;;;;8.38;5.92;;;;;;;11.13;80.49;93960.34;1806360;77;21091;-85
2021/06/04 06:33:59;;;;;;;7.83;5.40;;;;;;;11.23;80.03;93965.05;1763279;81;21041;-83
2021/06/04 06:36:27;;;;;;;14.23;6.35;;;;;;;11.32;79.53;93964.11;1762116;81;21066;-83
2021/06/04 06:38:56;;;;;;;9.48;5.62;;;;;;;11.39;78.81;93968.17;1770261;80;21177;-81
2021/06/04 06:41:24;;;;;;;7.87;6.33;;;;;;;11.50;78.73;93968.78;1771540;81;21630;-83
2021/06/04 06:43:52;;;;;;;12.50;5.80;;;;;;;11.56;78.40;93965.88;1774967;78;21183;-80
2021/06/04 06:46:21;;;;;;;7.67;5.65;;;;;;;11.65;77.96;93962.95;1776131;80;21199;-80
2021/06/04 06:48:50;;;;;;;8.58;5.12;;;;;;;11.76;77.18;93963.55;1775649;80;21113;-80
2021/06/04 06:51:16;;;;;;;7.00;4.25;;;;;;;11.85;77.46;93963.40;1773648;80;21097;-80
2021/06/04 06:53:44;;;;;;;7.22;4.15;;;;;;;11.96;76.09;93967.48;1773325;80;21149;-79
2021/06/04 06:56:13;;;;;;;8.85;6.20;;;;;;;12.06;74.90;93961.23;1772762;80;21111;-81
2021/06/04 06:58:40;;;;;;;8.35;5.08;;;;;;;12.19;73.48;93964.35;1774892;80;20973;-79
2021/06/04 07:01:07;;;;;;;5.78;4.25;;;;;;;12.29;72.17;93962.17;1767506;78;20990;-80
2021/06/04 07:03:36;;;;;;;5.87;4.03;;;;;;;12.38;71.85;93964.52;1834355;77;21092;-80
2021/06/04 07:06:09;;;;;;;7.03;3.80;;;;;;;12.49;72.09;93961.77;1855434;77;21036;-80
2021/06/04 07:08:36;;;;;;;6.72;3.85;;;;;;;12.59;72.06;93961.70;1793535;77;22289;-78
2021/06/04 07:11:04;;;;;;;5.37;3.45;;;;;;;12.70;71.42;93966.36;1787139;77;21092;-80
2021/06/04 07:13:34;;;;;;;5.62;3.27;;;;;;;12.79;70.50;93964.78;1774528;80;21477;-78
2021/06/04 07:16:07;;;;;;;6.20;3.83;;;;;;;12.89;69.81;93976.22;1778838;78;21107;-80
2021/06/04 07:18:34;;;;;;;4.72;3.98;;;;;;;12.99;69.32;93975.23;1783287;80;21784;-79
2021/06/04 07:21:01;;;;;;;7.47;3.37;;;;;;;13.08;69.10;93976.34;1760844;80;21129;-81
2021/06/04 07:23:28;;;;;;;7.22;3.30;;;;;;;13.16;68.92;93971.62;1784187;80;21093;-81
2021/06/04 07:25:55;;;;;;;6.58;3.80;;;;;;;13.23;68.18;93970.81;1770745;79;21057;-79
2021/06/04 07:28:27;;;;;;;6.83;4.83;;;;;;;13.29;67.93;93968.67;1777356;78;21061;-79
2021/06/04 07:30:54;;;;;;;6.22;3.98;;;;;;;13.38;68.86;93968.81;1838219;77;21231;-80
2021/06/04 07:33:26;;;;;;;7.15;4.00;;;;;;;13.46;67.63;93967.00;1845585;77;21100;-82
2021/06/04 07:35:54;;;;;;;5.40;3.90;;;;;;;13.53;67.54;93967.55;1811038;76;21065;-80
2021/06/04 07:38:21;;;;;;;10.72;4.33;;;;;;;13.62;66.69;93964.39;1815420;78;21629;-82
2021/06/04 07:40:48;;;;;;;6.47;3.35;;;;;;;13.69;67.03;93964.31;1806196;78;21559;-82
2021/06/04 07:43:21;;;;;;;8.40;3.35;;;;;;;13.76;65.79;93969.14;1800426;78;21708;-81
2021/06/04 07:45:48;;;;;;;7.95;3.47;;;;;;;13.84;65.28;93965.76;1815883;78;21095;-80
2021/06/04 07:48:16;;;;;;;8.05;3.80;;;;;;;13.90;64.82;93960.66;1795936;79;21136;-80
2021/06/04 07:50:44;;;;;;;8.18;3.80;;;;;;;13.94;65.09;93962.17;1813129;77;21063;-81
2021/06/04 07:53:13;;;;;;;8.60;3.70;;;;;;;14.01;65.14;93962.70;1772098;78;21034;-82
2021/06/04 07:55:41;;;;;;;8.08;3.90;;;;;;;14.06;65.14;93959.53;1768903;79;21089;-82
2021/06/04 07:58:09;;;;;;;12.82;4.37;;;;;;;14.13;64.26;93961.44;1801693;79;22319;-82
2021/06/04 08:00:38;;;;;;;12.35;5.33;;;;;;;14.20;64.61;93959.41;1776231;80;21057;-82
2021/06/04 08:03:05;;;;;;;9.15;5.10;;;;;;;14.28;64.68;93960.12;1816189;78;21108;-83
2021/06/04 08:05:32;;;;;;;9.10;4.45;;;;;;;14.36;64.65;93954.77;1765109;78;21054;-82
2021/06/04 08:07:59;;;;;;;4.87;3.72;;;;;;;14.43;63.13;93959.39;1806680;77;21073;-82
2021/06/04 08:10:25;;;;;;;8.43;3.67;;;;;;;14.47;62.72;93959.53;1806631;78;21115;-81
2021/06/04 08:12:52;;;;;;;9.48;3.95;;;;;;;14.51;62.27;93960.90;1769025;79;21111;-82
2021/06/04 08:15:25;;;;;;;6.90;3.83;;;;;;;14.55;62.49;93958.34;1744642;82;21053;-83
2021/06/04 08:17:51;;;;;;;8.08;3.92;;;;;;;14.62;61.24;93959.42;1807330;77;21100;-82
2021/06/04 08:20:23;;;;;;;5.03;3.25;;;;;;;14.68;59.92;93964.64;1758946;80;21086;-83
2021/06/04 08:22:52;;;;;;;6.15;3.87;;;;;;;14.72;60.07;93955.20;1763707;78;21133;-83
2021/06/04 08:25:20;;;;;;;8.28;3.62;;;;;;;14.77;59.93;93953.38;1764242;81;21026;-82
2021/06/04 08:27:46;;;;;;;10.68;3.92;;;;;;;14.82;59.81;93956.28;1743356;82;21035;-83
2021/06/04 08:30:14;;;;;;;10.90;4.08;;;;;;;14.88;59.88;93951.89;1751849;80;21329;-83
2021/06/04 08:32:40;;;;;;;12.58;3.27;;;;;;;14.92;59.16;93960.84;1751675;81;21031;-83
2021/06/04 08:35:08;;;;;;;7.22;3.30;;;;;;;14.98;58.95;93961.17;1751845;80;21114;-83
2021/06/04 08:37:36;;;;;;;6.47;3.65;;;;;;;15.01;58.05;93955.66;1758829;80;21129;-83
2021/06/04 08:40:06;;;;;;;9.50;4.12;;;;;;;15.08;57.31;93952.03;1790454;79;21071;-79
2021/06/04 08:45:52;;;;;;;4.75;3.37;;;;;;;15.22;57.69;93946.97;1831334;78;21026;-78
2021/06/04 08:48:58;;;;;;;16.37;4.08;;;;;;;15.28;57.79;93951.59;1766154;78;21073;-79
2021/06/04 08:51:38;;;;;;;4.45;3.02;;;;;;;15.33;57.69;93953.08;1811494;78;21137;-79
2021/06/04 08:54:31;;;;;;;3.80;2.77;;;;;;;15.38;58.10;93949.87;1775165;77;21593;-81
2021/06/04 08:57:15;;;;;;;5.00;2.80;;;;;;;15.43;56.64;93947.28;1789815;79;21061;-82
2021/06/04 08:59:42;;;;;;;5.28;3.10;;;;;;;15.48;56.91;93948.95;1817902;78;21524;-84
2021/06/04 09:02:12;;;;;;;4.60;3.15;;;;;;;15.54;56.27;93945.94;1817890;78;21643;-87
2021/06/04 09:04:49;;;;;;;8.05;3.47;;;;;;;15.62;56.19;93940.36;1817361;78;21025;-83
2021/06/04 09:07:29;;;;;;;5.47;3.35;;;;;;;15.69;55.53;93941.66;1815465;78;21049;-78
2021/06/04 09:12:54;;;;;;;4.65;2.98;;;;;;;15.87;55.71;93934.50;1744428;82;21042;-81
2021/06/04 09:15:25;;;;;;;11.65;5.37;;;;;;;16.00;54.85;93931.36;1744320;82;21114;-81
2021/06/04 09:18:15;;;;;;;8.28;4.37;;;;;;;16.13;54.55;93928.19;1739145;82;21082;-81
2021/06/04 09:21:01;;;;;;;6.78;3.62;;;;;;;16.24;54.04;93923.89;1732846;82;21053;-85
2021/06/04 09:23:31;;;;;;;4.20;3.35;;;;;;;16.29;51.31;93928.14;1732121;82;21095;-80
2021/06/04 09:25:58;;;;;;;5.03;3.62;;;;;;;16.26;50.71;93922.89;1740005;81;21067;-82
2021/06/04 09:28:47;;;;;;;4.33;3.47;;;;;;;16.27;51.59;93918.34;1756515;81;21104;-81
2021/06/04 09:31:27;;;;;;;7.85;3.75;;;;;;;16.38;52.47;93918.16;1731707;82;21102;-82
2021/06/04 09:33:58;;;;;;;3.52;2.77;;;;;;;16.55;53.23;93914.12;1777672;80;21624;-82
2021/06/04 09:36:45;;;;;;;3.52;2.33;;;;;;;16.74;52.07;93914.78;1747362;80;21078;-81
2021/06/04 09:39:32;;;;;;;6.00;3.50;;;;;;;16.79;44.46;93915.66;1738617;82;21090;-83
2021/06/04 09:42:21;;;;;;;4.20;3.27;;;;;;;16.71;38.12;93916.97;1741472;82;21115;-82
2021/06/04 09:45:08;;;;;;;3.35;2.62;;;;;;;16.58;41.11;93914.05;1770476;81;21128;-83
2021/06/04 09:47:44;;;;;;;3.02;2.67;;;;;;;16.48;42.50;93913.08;1769865;81;21076;-82
2021/06/04 09:50:30;;;;;;;3.72;2.65;;;;;;;16.45;43.49;93914.52;1769236;81;21056;-82
2021/06/04 09:53:11;;;;;;;2.40;2.10;;;;;;;16.42;43.60;93908.48;1744234;81;21667;-82
2021/06/04 09:55:44;;;;;;;2.65;2.45;;;;;;;16.45;45.05;93911.17;1713751;83;21770;-83
2021/06/04 09:58:25;;;;;;;4.40;2.37;;;;;;;16.47;43.30;93910.73;1720826;83;21006;-82
2021/06/04 10:01:04;;;;;;;3.95;3.55;;;;;;;16.48;43.31;93908.95;1762335;81;21579;-81
2021/06/04 10:03:48;;;;;;;5.37;2.67;;;;;;;16.51;44.13;93911.44;1792818;79;20972;-81
2021/06/04 10:06:43;;;;;;;3.08;2.62;;;;;;;16.54;44.91;93908.46;1770070;79;21535;-81
2021/06/04 10:09:35;;;;;;;4.33;2.80;;;;;;;16.53;46.01;93911.81;1775866;80;21109;-81
2021/06/04 10:12:20;;;;;;;3.37;3.08;;;;;;;16.49;46.22;93902.87;1765903;78;21045;-80
2021/06/04 10:14:55;;;;;;;4.90;3.02;;;;;;;16.53;46.87;93902.20;1747725;81;21097;-80
2021/06/04 10:17:41;;;;;;;2.90;2.60;;;;;;;16.58;47.02;93900.93;1782980;79;21646;-81
2021/06/04 10:20:45;;;;;;;6.30;2.22;;;;;;;16.65;46.53;93904.31;1781555;80;21052;-82
2021/06/04 10:23:38;;;;;;;4.35;2.05;;;;;;;16.75;45.49;93904.73;1770471;79;21844;-82
2021/06/04 10:26:24;;;;;;;3.22;2.50;;;;;;;16.81;45.82;93902.26;1789560;80;21560;-80
2021/06/04 10:29:12;;;;;;;;;;;;;;;16.84;45.79;93902.02;1783622;80;21551;-81
2021/06/04 10:32:17;;;;;;;2.90;1.80;;;;;;;16.79;44.56;93900.55;1764018;80;20154;-82
2021/06/04 10:35:13;;;;;;;6.90;2.83;;;;;;;16.68;43.26;93903.47;1783453;80;21570;-80
2021/06/04 10:40:21;;;;;;;5.70;2.90;;;;;;;16.38;42.71;93905.80;1759519;81;21057;-82
2021/06/04 10:43:13;;;;;;;5.05;3.17;;;;;;;16.29;41.80;93902.84;1779249;80;21058;-82
2021/06/04 10:45:45;;;;;;;7.83;3.42;;;;;;;16.24;42.74;93907.43;1775149;79;21048;-81
2021/06/04 10:48:37;;;;;;;5.42;3.42;;;;;;;16.18;43.76;93912.64;1756883;79;20976;-81
2021/06/04 10:51:18;;;;;;;4.78;3.05;;;;;;;16.14;43.43;93918.78;1764170;80;21177;-84
2021/06/04 10:53:55;;;;;;;5.72;3.67;;;;;;;16.08;43.49;93911.45;1759087;80;21087;-83
2021/06/04 10:56:32;;;;;;;3.30;2.70;;;;;;;16.07;42.40;93917.53;1775165;77;21023;-82
2021/06/04 10:59:29;;;;;;;3.60;2.80;;;;;;;16.09;42.79;93908.27;1806710;77;21036;-82
2021/06/04 11:02:19;;;;;;;2.85;2.40;;;;;;;16.10;44.40;93909.84;1780936;80;21047;-82
2021/06/04 11:04:49;;;;;;;2.33;2.02;;;;;;;16.13;43.28;93910.95;1776471;80;21119;-81
2021/06/04 11:07:30;;;;;;;2.42;1.90;;;;;;;16.18;44.17;93919.50;1821299;78;21015;-81
2021/06/04 11:10:13;;;;;;;4.40;2.50;;;;;;;16.22;44.65;93909.23;1823277;77;21037;-83
2021/06/04 11:13:02;;;;;;;2.72;2.30;;;;;;;16.26;43.74;93910.55;1753570;78;21062;-81
2021/06/04 11:15:41;;;;;;;2.65;2.12;;;;;;;16.31;43.55;93903.79;1782830;79;21070;-81
2021/06/04 11:18:24;;;;;;;3.35;2.10;;;;;;;16.37;43.38;93898.77;1797834;79;21847;-81
2021/06/04 11:20:57;;;;;;;4.90;1.82;;;;;;;16.43;43.00;93900.42;1805948;78;21555;-81
2021/06/04 11:23:38;;;;;;;5.92;2.80;;;;;;;16.50;42.33;93902.44;1806417;79;21033;-83
2021/06/04 11:26:10;;;;;;;7.90;2.50;;;;;;;16.60;43.32;93900.69;1777887;79;21559;-82
2021/06/04 11:28:52;;;;;;;2.67;2.02;;;;;;;16.70;42.94;93899.72;1751207;80;21099;-82
2021/06/04 11:31:58;;;;;;;2.12;1.92;;;;;;;16.78;38.20;93899.01;1782547;79;21149;-83
2021/06/04 11:38:00;;;;;;;7.50;2.50;;;;;;;16.88;38.88;93899.97;1750520;82;21081;-83
2021/06/04 11:40:37;;;;;;;3.15;2.20;;;;;;;16.89;39.17;93898.19;1733076;81;21024;-87
2021/06/04 11:43:17;;;;;;;3.80;2.65;;;;;;;16.87;39.45;93901.95;1793173;79;21106;-83
2021/06/04 11:45:46;;;;;;;4.12;3.47;;;;;;;16.84;39.35;93904.77;1815584;78;21103;-82
2021/06/04 11:48:33;;;;;;;5.08;3.77;;;;;;;16.81;38.82;93896.77;1812652;79;21569;-81
2021/06/04 11:51:28;;;;;;;4.12;3.05;;;;;;;16.81;39.17;93906.98;1786761;79;21009;-82
2021/06/04 11:54:18;;;;;;;4.30;2.20;;;;;;;16.80;40.75;93898.57;1742612;81;21057;-84
2021/06/04 11:57:03;;;;;;;4.97;2.37;;;;;;;16.78;39.52;93901.75;1763706;80;21089;-79
2021/06/04 11:59:55;;;;;;;3.58;2.52;;;;;;;16.80;38.76;93901.31;1745450;79;22040;-82
2021/06/04 12:02:44;;;;;;;2.37;1.80;;;;;;;16.85;42.93;93900.24;1800481;79;21107;-81
2021/06/04 12:05:22;;;;;;;4.92;2.30;;;;;;;16.94;40.94;93903.18;1802925;79;21116;-82
2021/06/04 12:08:12;;;;;;;2.45;1.80;;;;;;;17.02;41.33;93888.70;1741640;82;21540;-80
2021/06/04 12:11:07;;;;;;;2.00;1.90;;;;;;;17.11;42.31;93883.98;1848047;77;21046;-81
2021/06/04 12:13:49;;;;;;;2.67;2.02;;;;;;;17.18;42.92;93886.59;1841270;77;21039;-80
2021/06/04 12:16:27;;;;;;;3.75;2.20;;;;;;;17.22;42.33;93885.30;1820277;77;21622;-82
2021/06/04 12:19:17;;;;;;;2.25;2.05;;;;;;;17.23;41.67;93889.63;1767796;76;21067;-80
2021/06/04 12:21:55;;;;;;;2.40;2.20;;;;;;;17.22;41.04;93890.80;1773004;79;21594;-83
2021/06/04 12:24:37;;;;;;;4.03;2.60;;;;;;;17.16;40.21;93888.40;1769661;80;21270;-83